sensor_id;sensor_type;location;lat;lon;timestamp;P1;durP1;ratioP1;P2;durP2;ratioP2
56541;SDS011;42438;53.174;6.730;2023-05-28T00:01:34;15.23;;;5.13;;
56541;SDS011;42438;53.174;6.730;2023-05-28T00:04:05;13.68;;;4.95;;
56541;SDS011;42438;53.174;6.730;2023-05-28T00:06:36;12.48;;;4.97;;
56541;SDS011;42438;53.174;6.730;2023-05-28T00:09:07;12.85;;;5.07;;
56541;SDS011;42438;53.174;6.730;2023-05-28T00:11:38;16.73;;;5.35;;
56541;SDS011;42438;53.174;6.730;2023-05-28T00:14:08;11.85;;;4.53;;
56541;SDS011;42438;53.174;6.730;2023-05-28T00:16:39;14.23;;;5.32;;
56541;SDS011;42438;53.174;6.730;2023-05-28T00:19:11;12.52;;;4.80;;
56541;SDS011;42438;53.174;6.730;2023-05-28T00:21:41;13.77;;;5.38;;
56541;SDS011;42438;53.174;6.730;2023-05-28T00:24:12;15.73;;;6.05;;
56541;SDS011;42438;53.174;6.730;2023-05-28T00:26:43;12.52;;;4.90;;
56541;SDS011;42438;53.174;6.730;2023-05-28T00:29:13;13.68;;;5.63;;
56541;SDS011;42438;53.174;6.730;2023-05-28T00:31:44;10.32;;;4.40;;
56541;SDS011;42438;53.174;6.730;2023-05-28T00:34:15;12.77;;;5.30;;
56541;SDS011;42438;53.174;6.730;2023-05-28T00:36:46;12.63;;;5.20;;
56541;SDS011;42438;53.174;6.730;2023-05-28T00:39:17;11.13;;;4.53;;
56541;SDS011;42438;53.174;6.730;2023-05-28T00:41:48;12.75;;;4.65;;
56541;SDS011;42438;53.174;6.730;2023-05-28T00:44:31;12.05;;;5.10;;
56541;SDS011;42438;53.174;6.730;2023-05-28T00:47:02;18.27;;;5.47;;
56541;SDS011;42438;53.174;6.730;2023-05-28T00:49:33;11.95;;;4.63;;
56541;SDS011;42438;53.174;6.730;2023-05-28T00:52:04;13.25;;;4.97;;
56541;SDS011;42438;53.174;6.730;2023-05-28T00:54:35;13.02;;;5.10;;
56541;SDS011;42438;53.174;6.730;2023-05-28T00:57:06;11.40;;;5.10;;
56541;SDS011;42438;53.174;6.730;2023-05-28T00:59:37;15.18;;;5.05;;
56541;SDS011;42438;53.174;6.730;2023-05-28T01:02:08;14.27;;;4.97;;
56541;SDS011;42438;53.174;6.730;2023-05-28T01:04:41;11.60;;;5.45;;
56541;SDS011;42438;53.174;6.730;2023-05-28T01:07:12;17.35;;;4.63;;
56541;SDS011;42438;53.174;6.730;2023-05-28T01:09:42;14.60;;;5.20;;
56541;SDS011;42438;53.174;6.730;2023-05-28T01:12:13;13.70;;;5.60;;
56541;SDS011;42438;53.174;6.730;2023-05-28T01:14:44;17.25;;;5.30;;
56541;SDS011;42438;53.174;6.730;2023-05-28T01:17:15;10.10;;;4.63;;
56541;SDS011;42438;53.174;6.730;2023-05-28T01:19:46;14.85;;;4.82;;
56541;SDS011;42438;53.174;6.730;2023-05-28T01:22:17;12.40;;;4.85;;
56541;SDS011;42438;53.174;6.730;2023-05-28T01:24:50;14.63;;;4.70;;
56541;SDS011;42438;53.174;6.730;2023-05-28T01:27:21;11.20;;;5.20;;
56541;SDS011;42438;53.174;6.730;2023-05-28T01:29:52;13.60;;;5.15;;
56541;SDS011;42438;53.174;6.730;2023-05-28T01:32:23;10.88;;;4.90;;
56541;SDS011;42438;53.174;6.730;2023-05-28T01:34:54;15.73;;;4.82;;
56541;SDS011;42438;53.174;6.730;2023-05-28T01:37:25;15.23;;;5.80;;
56541;SDS011;42438;53.174;6.730;2023-05-28T01:39:56;17.60;;;5.55;;
56541;SDS011;42438;53.174;6.730;2023-05-28T01:42:29;11.35;;;4.45;;
56541;SDS011;42438;53.174;6.730;2023-05-28T01:45:01;13.80;;;4.82;;
56541;SDS011;42438;53.174;6.730;2023-05-28T01:47:34;14.75;;;5.57;;
56541;SDS011;42438;53.174;6.730;2023-05-28T01:50:06;12.68;;;4.88;;
56541;SDS011;42438;53.174;6.730;2023-05-28T01:52:38;11.30;;;4.97;;
56541;SDS011;42438;53.174;6.730;2023-05-28T01:55:09;16.77;;;5.28;;
56541;SDS011;42438;53.174;6.730;2023-05-28T01:57:41;10.63;;;4.77;;
56541;SDS011;42438;53.174;6.730;2023-05-28T02:00:13;14.93;;;5.13;;
56541;SDS011;42438;53.174;6.730;2023-05-28T02:02:45;15.60;;;5.70;;
56541;SDS011;42438;53.174;6.730;2023-05-28T02:05:15;11.70;;;4.90;;
56541;SDS011;42438;53.174;6.730;2023-05-28T02:07:46;14.68;;;5.07;;
56541;SDS011;42438;53.174;6.730;2023-05-28T02:10:17;14.27;;;5.63;;
56541;SDS011;42438;53.174;6.730;2023-05-28T02:12:48;11.90;;;4.72;;
56541;SDS011;42438;53.174;6.730;2023-05-28T02:15:19;16.98;;;6.20;;
56541;SDS011;42438;53.174;6.730;2023-05-28T02:17:51;15.35;;;5.40;;
56541;SDS011;42438;53.174;6.730;2023-05-28T02:20:22;19.33;;;6.10;;
56541;SDS011;42438;53.174;6.730;2023-05-28T02:22:52;17.50;;;5.00;;
56541;SDS011;42438;53.174;6.730;2023-05-28T02:25:23;11.40;;;4.60;;
56541;SDS011;42438;53.174;6.730;2023-05-28T02:27:54;13.80;;;5.18;;
56541;SDS011;42438;53.174;6.730;2023-05-28T02:30:25;10.75;;;5.10;;
56541;SDS011;42438;53.174;6.730;2023-05-28T02:32:56;12.23;;;4.78;;
56541;SDS011;42438;53.174;6.730;2023-05-28T02:35:26;9.68;;;4.88;;
56541;SDS011;42438;53.174;6.730;2023-05-28T02:37:57;12.38;;;4.78;;
56541;SDS011;42438;53.174;6.730;2023-05-28T02:40:27;16.42;;;5.72;;
56541;SDS011;42438;53.174;6.730;2023-05-28T02:42:58;10.13;;;4.28;;
56541;SDS011;42438;53.174;6.730;2023-05-28T02:45:29;12.80;;;5.43;;
56541;SDS011;42438;53.174;6.730;2023-05-28T02:47:59;12.57;;;5.15;;
56541;SDS011;42438;53.174;6.730;2023-05-28T02:50:30;13.43;;;4.88;;
56541;SDS011;42438;53.174;6.730;2023-05-28T02:53:01;14.93;;;4.85;;
56541;SDS011;42438;53.174;6.730;2023-05-28T02:55:33;19.70;;;5.05;;
56541;SDS011;42438;53.174;6.730;2023-05-28T02:58:03;13.45;;;4.82;;
56541;SDS011;42438;53.174;6.730;2023-05-28T03:00:35;15.02;;;4.95;;
56541;SDS011;42438;53.174;6.730;2023-05-28T03:03:06;13.40;;;5.90;;
56541;SDS011;42438;53.174;6.730;2023-05-28T03:05:36;13.35;;;5.05;;
56541;SDS011;42438;53.174;6.730;2023-05-28T03:08:07;12.13;;;4.90;;
56541;SDS011;42438;53.174;6.730;2023-05-28T03:10:38;12.60;;;4.80;;
56541;SDS011;42438;53.174;6.730;2023-05-28T03:13:08;13.00;;;4.97;;
56541;SDS011;42438;53.174;6.730;2023-05-28T03:15:39;12.93;;;4.90;;
56541;SDS011;42438;53.174;6.730;2023-05-28T03:18:10;15.88;;;5.07;;
56541;SDS011;42438;53.174;6.730;2023-05-28T03:20:41;15.90;;;5.35;;
56541;SDS011;42438;53.174;6.730;2023-05-28T03:23:11;15.38;;;5.43;;
56541;SDS011;42438;53.174;6.730;2023-05-28T03:25:42;13.68;;;5.50;;
56541;SDS011;42438;53.174;6.730;2023-05-28T03:28:13;11.82;;;5.10;;
56541;SDS011;42438;53.174;6.730;2023-05-28T03:30:43;12.80;;;5.05;;
56541;SDS011;42438;53.174;6.730;2023-05-28T03:33:15;14.07;;;5.50;;
56541;SDS011;42438;53.174;6.730;2023-05-28T03:35:45;14.68;;;5.20;;
56541;SDS011;42438;53.174;6.730;2023-05-28T03:38:16;11.27;;;5.50;;
56541;SDS011;42438;53.174;6.730;2023-05-28T03:40:47;14.40;;;5.13;;
56541;SDS011;42438;53.174;6.730;2023-05-28T03:43:17;13.48;;;5.30;;
56541;SDS011;42438;53.174;6.730;2023-05-28T03:45:48;15.10;;;5.40;;
56541;SDS011;42438;53.174;6.730;2023-05-28T03:48:19;15.40;;;5.32;;
56541;SDS011;42438;53.174;6.730;2023-05-28T03:50:49;14.15;;;5.75;;
56541;SDS011;42438;53.174;6.730;2023-05-28T03:53:20;14.10;;;5.30;;
56541;SDS011;42438;53.174;6.730;2023-05-28T03:55:51;11.95;;;5.13;;
56541;SDS011;42438;53.174;6.730;2023-05-28T03:58:21;12.55;;;4.72;;
56541;SDS011;42438;53.174;6.730;2023-05-28T04:00:52;10.73;;;4.75;;
56541;SDS011;42438;53.174;6.730;2023-05-28T04:03:23;10.32;;;4.50;;
56541;SDS011;42438;53.174;6.730;2023-05-28T04:05:53;12.15;;;4.25;;
56541;SDS011;42438;53.174;6.730;2023-05-28T04:08:24;12.02;;;4.72;;
56541;SDS011;42438;53.174;6.730;2023-05-28T04:10:55;13.95;;;4.88;;
56541;SDS011;42438;53.174;6.730;2023-05-28T04:13:25;16.35;;;4.90;;
56541;SDS011;42438;53.174;6.730;2023-05-28T04:15:56;11.27;;;5.05;;
56541;SDS011;42438;53.174;6.730;2023-05-28T04:18:27;12.98;;;5.20;;
56541;SDS011;42438;53.174;6.730;2023-05-28T04:20:58;8.32;;;4.60;;
56541;SDS011;42438;53.174;6.730;2023-05-28T04:23:29;12.10;;;4.97;;
56541;SDS011;42438;53.174;6.730;2023-05-28T04:26:00;13.40;;;5.47;;
56541;SDS011;42438;53.174;6.730;2023-05-28T04:28:31;11.13;;;4.93;;
56541;SDS011;42438;53.174;6.730;2023-05-28T04:31:03;10.32;;;5.20;;
56541;SDS011;42438;53.174;6.730;2023-05-28T04:33:34;9.95;;;4.32;;
56541;SDS011;42438;53.174;6.730;2023-05-28T04:36:06;9.15;;;4.55;;
56541;SDS011;42438;53.174;6.730;2023-05-28T04:38:43;14.50;;;5.43;;
56541;SDS011;42438;53.174;6.730;2023-05-28T04:41:14;12.88;;;5.10;;
56541;SDS011;42438;53.174;6.730;2023-05-28T04:43:44;12.20;;;6.05;;
56541;SDS011;42438;53.174;6.730;2023-05-28T04:46:15;11.57;;;5.25;;
56541;SDS011;42438;53.174;6.730;2023-05-28T04:48:46;17.15;;;6.03;;
56541;SDS011;42438;53.174;6.730;2023-05-28T04:51:16;14.40;;;6.00;;
56541;SDS011;42438;53.174;6.730;2023-05-28T04:53:48;19.40;;;5.72;;
56541;SDS011;42438;53.174;6.730;2023-05-28T04:56:19;12.57;;;5.60;;
56541;SDS011;42438;53.174;6.730;2023-05-28T04:58:50;14.98;;;5.75;;
56541;SDS011;42438;53.174;6.730;2023-05-28T05:01:21;13.77;;;5.78;;
56541;SDS011;42438;53.174;6.730;2023-05-28T05:03:52;11.15;;;5.53;;
56541;SDS011;42438;53.174;6.730;2023-05-28T05:06:22;12.50;;;5.50;;
56541;SDS011;42438;53.174;6.730;2023-05-28T05:08:53;12.73;;;5.40;;
56541;SDS011;42438;53.174;6.730;2023-05-28T05:11:24;12.30;;;6.50;;
56541;SDS011;42438;53.174;6.730;2023-05-28T05:13:56;10.80;;;4.65;;
56541;SDS011;42438;53.174;6.730;2023-05-28T05:16:27;12.45;;;5.40;;
56541;SDS011;42438;53.174;6.730;2023-05-28T05:18:58;12.73;;;5.13;;
56541;SDS011;42438;53.174;6.730;2023-05-28T05:21:29;14.27;;;4.70;;
56541;SDS011;42438;53.174;6.730;2023-05-28T05:23:59;13.93;;;5.47;;
56541;SDS011;42438;53.174;6.730;2023-05-28T05:26:30;14.40;;;5.25;;
56541;SDS011;42438;53.174;6.730;2023-05-28T05:29:00;15.93;;;6.03;;
56541;SDS011;42438;53.174;6.730;2023-05-28T05:31:31;15.82;;;5.72;;
56541;SDS011;42438;53.174;6.730;2023-05-28T05:34:02;15.68;;;5.93;;
56541;SDS011;42438;53.174;6.730;2023-05-28T05:36:33;16.50;;;6.30;;
56541;SDS011;42438;53.174;6.730;2023-05-28T05:39:05;12.35;;;5.40;;
56541;SDS011;42438;53.174;6.730;2023-05-28T05:41:35;10.45;;;5.38;;
56541;SDS011;42438;53.174;6.730;2023-05-28T05:44:06;11.00;;;4.53;;
56541;SDS011;42438;53.174;6.730;2023-05-28T05:46:37;11.18;;;5.43;;
56541;SDS011;42438;53.174;6.730;2023-05-28T05:49:08;11.93;;;5.43;;
56541;SDS011;42438;53.174;6.730;2023-05-28T05:51:39;13.43;;;5.15;;
56541;SDS011;42438;53.174;6.730;2023-05-28T05:54:10;10.40;;;5.63;;
56541;SDS011;42438;53.174;6.730;2023-05-28T05:56:41;11.65;;;4.32;;
56541;SDS011;42438;53.174;6.730;2023-05-28T05:59:11;13.18;;;4.32;;
56541;SDS011;42438;53.174;6.730;2023-05-28T06:01:42;9.98;;;4.13;;
56541;SDS011;42438;53.174;6.730;2023-05-28T06:04:13;12.27;;;4.68;;
56541;SDS011;42438;53.174;6.730;2023-05-28T06:06:43;10.07;;;4.10;;
56541;SDS011;42438;53.174;6.730;2023-05-28T06:09:14;12.95;;;4.45;;
56541;SDS011;42438;53.174;6.730;2023-05-28T06:11:46;9.55;;;4.05;;
56541;SDS011;42438;53.174;6.730;2023-05-28T06:14:17;11.00;;;4.40;;
56541;SDS011;42438;53.174;6.730;2023-05-28T06:16:49;10.75;;;4.47;;
56541;SDS011;42438;53.174;6.730;2023-05-28T06:19:20;12.07;;;4.95;;
56541;SDS011;42438;53.174;6.730;2023-05-28T06:21:51;10.73;;;4.22;;
56541;SDS011;42438;53.174;6.730;2023-05-28T06:24:22;7.57;;;3.75;;
56541;SDS011;42438;53.174;6.730;2023-05-28T06:26:53;12.50;;;4.53;;
56541;SDS011;42438;53.174;6.730;2023-05-28T06:29:23;10.57;;;4.63;;
56541;SDS011;42438;53.174;6.730;2023-05-28T06:31:54;11.00;;;4.47;;
56541;SDS011;42438;53.174;6.730;2023-05-28T06:34:25;9.63;;;4.60;;
56541;SDS011;42438;53.174;6.730;2023-05-28T06:36:56;9.73;;;5.05;;
56541;SDS011;42438;53.174;6.730;2023-05-28T06:39:27;14.50;;;4.85;;
56541;SDS011;42438;53.174;6.730;2023-05-28T06:41:58;14.95;;;4.57;;
56541;SDS011;42438;53.174;6.730;2023-05-28T06:44:29;11.02;;;5.28;;
56541;SDS011;42438;53.174;6.730;2023-05-28T06:47:00;9.88;;;4.28;;
56541;SDS011;42438;53.174;6.730;2023-05-28T06:49:31;9.63;;;4.10;;
56541;SDS011;42438;53.174;6.730;2023-05-28T06:52:02;10.27;;;4.00;;
56541;SDS011;42438;53.174;6.730;2023-05-28T06:54:33;10.18;;;4.47;;
56541;SDS011;42438;53.174;6.730;2023-05-28T06:57:04;9.52;;;3.92;;
56541;SDS011;42438;53.174;6.730;2023-05-28T06:59:35;8.93;;;4.03;;
56541;SDS011;42438;53.174;6.730;2023-05-28T07:02:06;9.02;;;3.15;;
56541;SDS011;42438;53.174;6.730;2023-05-28T07:04:36;9.18;;;3.83;;
56541;SDS011;42438;53.174;6.730;2023-05-28T07:07:08;7.38;;;3.78;;
56541;SDS011;42438;53.174;6.730;2023-05-28T07:09:38;8.60;;;3.50;;
56541;SDS011;42438;53.174;6.730;2023-05-28T07:12:09;7.75;;;3.55;;
56541;SDS011;42438;53.174;6.730;2023-05-28T07:14:40;9.35;;;3.58;;
56541;SDS011;42438;53.174;6.730;2023-05-28T07:17:10;7.18;;;3.05;;
56541;SDS011;42438;53.174;6.730;2023-05-28T07:19:41;10.77;;;3.42;;
56541;SDS011;42438;53.174;6.730;2023-05-28T07:22:12;6.60;;;3.35;;
56541;SDS011;42438;53.174;6.730;2023-05-28T07:24:42;8.85;;;3.10;;
56541;SDS011;42438;53.174;6.730;2023-05-28T07:27:13;7.70;;;3.28;;
56541;SDS011;42438;53.174;6.730;2023-05-28T07:29:44;6.85;;;3.78;;
56541;SDS011;42438;53.174;6.730;2023-05-28T07:32:15;6.47;;;2.65;;
56541;SDS011;42438;53.174;6.730;2023-05-28T07:34:45;7.22;;;3.20;;
56541;SDS011;42438;53.174;6.730;2023-05-28T07:37:16;6.18;;;3.17;;
56541;SDS011;42438;53.174;6.730;2023-05-28T07:39:47;7.05;;;2.80;;
56541;SDS011;42438;53.174;6.730;2023-05-28T07:42:17;6.38;;;2.70;;
56541;SDS011;42438;53.174;6.730;2023-05-28T07:44:49;3.85;;;2.05;;
56541;SDS011;42438;53.174;6.730;2023-05-28T07:47:20;4.72;;;2.58;;
56541;SDS011;42438;53.174;6.730;2023-05-28T07:49:50;6.95;;;3.05;;
56541;SDS011;42438;53.174;6.730;2023-05-28T07:52:21;5.25;;;2.58;;
56541;SDS011;42438;53.174;6.730;2023-05-28T07:54:52;4.25;;;2.30;;
56541;SDS011;42438;53.174;6.730;2023-05-28T07:57:23;6.43;;;2.85;;
56541;SDS011;42438;53.174;6.730;2023-05-28T07:59:54;6.20;;;2.83;;
56541;SDS011;42438;53.174;6.730;2023-05-28T08:02:25;8.63;;;2.95;;
56541;SDS011;42438;53.174;6.730;2023-05-28T08:04:55;6.32;;;3.13;;
56541;SDS011;42438;53.174;6.730;2023-05-28T08:07:27;6.60;;;3.10;;
56541;SDS011;42438;53.174;6.730;2023-05-28T08:09:58;5.75;;;3.03;;
56541;SDS011;42438;53.174;6.730;2023-05-28T08:12:28;6.30;;;2.78;;
56541;SDS011;42438;53.174;6.730;2023-05-28T08:14:59;6.10;;;2.90;;
56541;SDS011;42438;53.174;6.730;2023-05-28T08:17:31;6.30;;;3.00;;
56541;SDS011;42438;53.174;6.730;2023-05-28T08:20:05;8.98;;;3.20;;
56541;SDS011;42438;53.174;6.730;2023-05-28T08:22:37;6.85;;;2.83;;
56541;SDS011;42438;53.174;6.730;2023-05-28T08:25:08;5.82;;;2.72;;
56541;SDS011;42438;53.174;6.730;2023-05-28T08:27:39;7.38;;;3.00;;
56541;SDS011;42438;53.174;6.730;2023-05-28T08:30:10;7.35;;;3.30;;
56541;SDS011;42438;53.174;6.730;2023-05-28T08:32:41;6.97;;;3.60;;
56541;SDS011;42438;53.174;6.730;2023-05-28T08:35:12;8.65;;;3.08;;
56541;SDS011;42438;53.174;6.730;2023-05-28T08:37:43;6.97;;;3.47;;
56541;SDS011;42438;53.174;6.730;2023-05-28T08:40:13;6.03;;;3.72;;
56541;SDS011;42438;53.174;6.730;2023-05-28T08:42:44;9.35;;;3.70;;
56541;SDS011;42438;53.174;6.730;2023-05-28T08:45:15;6.85;;;3.40;;
56541;SDS011;42438;53.174;6.730;2023-05-28T08:47:45;6.88;;;3.38;;
56541;SDS011;42438;53.174;6.730;2023-05-28T08:50:19;7.82;;;3.25;;
56541;SDS011;42438;53.174;6.730;2023-05-28T08:52:54;6.15;;;3.30;;
56541;SDS011;42438;53.174;6.730;2023-05-28T08:55:25;9.05;;;3.50;;
56541;SDS011;42438;53.174;6.730;2023-05-28T08:57:56;8.05;;;3.58;;
56541;SDS011;42438;53.174;6.730;2023-05-28T09:00:27;5.85;;;3.30;;
56541;SDS011;42438;53.174;6.730;2023-05-28T09:02:58;8.02;;;3.97;;
56541;SDS011;42438;53.174;6.730;2023-05-28T09:05:28;10.57;;;3.80;;
56541;SDS011;42438;53.174;6.730;2023-05-28T09:07:59;9.35;;;4.28;;
56541;SDS011;42438;53.174;6.730;2023-05-28T09:10:30;8.75;;;3.92;;
56541;SDS011;42438;53.174;6.730;2023-05-28T09:13:03;8.95;;;4.00;;
56541;SDS011;42438;53.174;6.730;2023-05-28T09:15:34;10.65;;;4.47;;
56541;SDS011;42438;53.174;6.730;2023-05-28T09:18:05;9.45;;;3.95;;
56541;SDS011;42438;53.174;6.730;2023-05-28T09:20:36;8.18;;;3.80;;
56541;SDS011;42438;53.174;6.730;2023-05-28T09:23:06;10.00;;;4.35;;
56541;SDS011;42438;53.174;6.730;2023-05-28T09:25:37;11.38;;;4.47;;
56541;SDS011;42438;53.174;6.730;2023-05-28T09:28:08;9.07;;;4.30;;
56541;SDS011;42438;53.174;6.730;2023-05-28T09:30:39;10.32;;;4.47;;
56541;SDS011;42438;53.174;6.730;2023-05-28T09:33:11;10.40;;;4.50;;
56541;SDS011;42438;53.174;6.730;2023-05-28T09:35:41;11.15;;;5.20;;
56541;SDS011;42438;53.174;6.730;2023-05-28T09:38:12;8.50;;;4.60;;
56541;SDS011;42438;53.174;6.730;2023-05-28T09:40:43;10.63;;;4.13;;
56541;SDS011;42438;53.174;6.730;2023-05-28T09:43:14;10.50;;;5.65;;
56541;SDS011;42438;53.174;6.730;2023-05-28T09:45:44;6.68;;;4.07;;
56541;SDS011;42438;53.174;6.730;2023-05-28T09:48:15;10.00;;;5.18;;
56541;SDS011;42438;53.174;6.730;2023-05-28T09:50:46;13.20;;;8.18;;
56541;SDS011;42438;53.174;6.730;2023-05-28T09:53:17;13.15;;;7.68;;
56541;SDS011;42438;53.174;6.730;2023-05-28T09:55:49;9.27;;;5.28;;
56541;SDS011;42438;53.174;6.730;2023-05-28T09:58:20;8.52;;;4.72;;
56541;SDS011;42438;53.174;6.730;2023-05-28T10:00:54;9.52;;;5.55;;
56541;SDS011;42438;53.174;6.730;2023-05-28T10:03:34;13.85;;;5.72;;
56541;SDS011;42438;53.174;6.730;2023-05-28T10:06:12;11.15;;;5.90;;
56541;SDS011;42438;53.174;6.730;2023-05-28T10:08:47;11.85;;;5.20;;
56541;SDS011;42438;53.174;6.730;2023-05-28T10:11:22;10.93;;;5.90;;
56541;SDS011;42438;53.174;6.730;2023-05-28T10:13:56;10.32;;;5.80;;
56541;SDS011;42438;53.174;6.730;2023-05-28T10:16:27;11.65;;;6.20;;
56541;SDS011;42438;53.174;6.730;2023-05-28T10:18:58;9.52;;;5.38;;
56541;SDS011;42438;53.174;6.730;2023-05-28T10:21:31;9.77;;;5.85;;
56541;SDS011;42438;53.174;6.730;2023-05-28T10:24:02;9.43;;;4.88;;
56541;SDS011;42438;53.174;6.730;2023-05-28T10:26:34;11.07;;;5.68;;
56541;SDS011;42438;53.174;6.730;2023-05-28T10:29:05;14.55;;;6.30;;
56541;SDS011;42438;53.174;6.730;2023-05-28T10:31:39;11.70;;;6.60;;
56541;SDS011;42438;53.174;6.730;2023-05-28T10:34:16;10.85;;;5.55;;
56541;SDS011;42438;53.174;6.730;2023-05-28T10:36:52;13.18;;;6.40;;
56541;SDS011;42438;53.174;6.730;2023-05-28T10:39:23;9.85;;;5.63;;
56541;SDS011;42438;53.174;6.730;2023-05-28T10:41:56;11.65;;;5.70;;
56541;SDS011;42438;53.174;6.730;2023-05-28T10:44:27;10.20;;;5.00;;
56541;SDS011;42438;53.174;6.730;2023-05-28T10:47:30;10.75;;;5.65;;
56541;SDS011;42438;53.174;6.730;2023-05-28T10:52:38;9.25;;;4.32;;
56541;SDS011;42438;53.174;6.730;2023-05-28T10:55:10;8.15;;;4.57;;
56541;SDS011;42438;53.174;6.730;2023-05-28T10:57:46;9.63;;;5.13;;
56541;SDS011;42438;53.174;6.730;2023-05-28T11:00:24;10.13;;;4.03;;
56541;SDS011;42438;53.174;6.730;2023-05-28T11:02:55;8.80;;;4.22;;
56541;SDS011;42438;53.174;6.730;2023-05-28T11:05:26;9.10;;;4.38;;
56541;SDS011;42438;53.174;6.730;2023-05-28T11:07:56;8.70;;;3.97;;
56541;SDS011;42438;53.174;6.730;2023-05-28T11:10:28;11.00;;;4.88;;
56541;SDS011;42438;53.174;6.730;2023-05-28T11:12:59;7.28;;;3.88;;
56541;SDS011;42438;53.174;6.730;2023-05-28T11:15:29;8.43;;;3.75;;
56541;SDS011;42438;53.174;6.730;2023-05-28T11:18:00;8.63;;;4.03;;
56541;SDS011;42438;53.174;6.730;2023-05-28T11:20:31;6.13;;;2.78;;
56541;SDS011;42438;53.174;6.730;2023-05-28T11:23:13;8.88;;;3.60;;
56541;SDS011;42438;53.174;6.730;2023-05-28T11:25:45;11.52;;;4.28;;
56541;SDS011;42438;53.174;6.730;2023-05-28T11:28:17;8.93;;;4.10;;
56541;SDS011;42438;53.174;6.730;2023-05-28T11:30:50;8.38;;;3.90;;
56541;SDS011;42438;53.174;6.730;2023-05-28T11:33:21;9.57;;;3.95;;
56541;SDS011;42438;53.174;6.730;2023-05-28T11:35:56;8.05;;;3.95;;
56541;SDS011;42438;53.174;6.730;2023-05-28T11:38:30;7.22;;;3.55;;
56541;SDS011;42438;53.174;6.730;2023-05-28T11:41:01;7.78;;;3.33;;
56541;SDS011;42438;53.174;6.730;2023-05-28T11:43:32;8.95;;;3.78;;
56541;SDS011;42438;53.174;6.730;2023-05-28T11:46:03;8.48;;;3.80;;
56541;SDS011;42438;53.174;6.730;2023-05-28T11:48:36;6.60;;;3.17;;
56541;SDS011;42438;53.174;6.730;2023-05-28T11:51:08;7.18;;;3.47;;
56541;SDS011;42438;53.174;6.730;2023-05-28T11:53:39;6.78;;;3.13;;
56541;SDS011;42438;53.174;6.730;2023-05-28T11:56:11;10.07;;;3.20;;
56541;SDS011;42438;53.174;6.730;2023-05-28T11:58:45;8.15;;;3.30;;
56541;SDS011;42438;53.174;6.730;2023-05-28T12:01:18;10.82;;;3.53;;
56541;SDS011;42438;53.174;6.730;2023-05-28T12:03:49;9.75;;;3.17;;
56541;SDS011;42438;53.174;6.730;2023-05-28T12:06:19;8.90;;;3.25;;
56541;SDS011;42438;53.174;6.730;2023-05-28T12:08:50;8.27;;;3.38;;
56541;SDS011;42438;53.174;6.730;2023-05-28T12:11:27;6.32;;;3.22;;
56541;SDS011;42438;53.174;6.730;2023-05-28T12:14:07;11.68;;;3.20;;
56541;SDS011;42438;53.174;6.730;2023-05-28T12:19:18;6.80;;;3.20;;
56541;SDS011;42438;53.174;6.730;2023-05-28T12:21:49;7.72;;;3.58;;
56541;SDS011;42438;53.174;6.730;2023-05-28T12:24:20;9.48;;;3.58;;
56541;SDS011;42438;53.174;6.730;2023-05-28T12:26:50;6.43;;;2.90;;
56541;SDS011;42438;53.174;6.730;2023-05-28T12:29:21;9.70;;;3.10;;
56541;SDS011;42438;53.174;6.730;2023-05-28T12:31:58;9.35;;;3.80;;
56541;SDS011;42438;53.174;6.730;2023-05-28T12:34:29;9.27;;;3.70;;
56541;SDS011;42438;53.174;6.730;2023-05-28T12:37:00;7.47;;;3.20;;
56541;SDS011;42438;53.174;6.730;2023-05-28T12:39:31;7.68;;;3.47;;
56541;SDS011;42438;53.174;6.730;2023-05-28T12:42:02;10.50;;;3.72;;
56541;SDS011;42438;53.174;6.730;2023-05-28T12:44:33;9.10;;;3.88;;
56541;SDS011;42438;53.174;6.730;2023-05-28T12:47:04;10.25;;;3.78;;
56541;SDS011;42438;53.174;6.730;2023-05-28T12:49:35;8.00;;;3.20;;
56541;SDS011;42438;53.174;6.730;2023-05-28T12:52:06;10.57;;;4.10;;
56541;SDS011;42438;53.174;6.730;2023-05-28T12:54:37;7.15;;;3.05;;
56541;SDS011;42438;53.174;6.730;2023-05-28T12:57:07;8.48;;;3.05;;
56541;SDS011;42438;53.174;6.730;2023-05-28T12:59:38;8.63;;;3.15;;
56541;SDS011;42438;53.174;6.730;2023-05-28T13:02:08;9.50;;;3.78;;
56541;SDS011;42438;53.174;6.730;2023-05-28T13:04:39;10.30;;;3.45;;
56541;SDS011;42438;53.174;6.730;2023-05-28T13:07:10;7.60;;;3.08;;
56541;SDS011;42438;53.174;6.730;2023-05-28T13:09:42;9.02;;;3.45;;
56541;SDS011;42438;53.174;6.730;2023-05-28T13:12:12;8.48;;;3.53;;
56541;SDS011;42438;53.174;6.730;2023-05-28T13:14:43;9.68;;;4.07;;
56541;SDS011;42438;53.174;6.730;2023-05-28T13:17:14;9.35;;;4.00;;
56541;SDS011;42438;53.174;6.730;2023-05-28T13:19:45;12.50;;;3.90;;
56541;SDS011;42438;53.174;6.730;2023-05-28T13:22:16;10.95;;;3.05;;
56541;SDS011;42438;53.174;6.730;2023-05-28T13:24:46;9.73;;;3.92;;
56541;SDS011;42438;53.174;6.730;2023-05-28T13:27:17;11.77;;;4.60;;
56541;SDS011;42438;53.174;6.730;2023-05-28T13:29:48;7.68;;;2.88;;
56541;SDS011;42438;53.174;6.730;2023-05-28T13:32:18;10.57;;;4.00;;
56541;SDS011;42438;53.174;6.730;2023-05-28T13:34:49;10.13;;;4.93;;
56541;SDS011;42438;53.174;6.730;2023-05-28T13:37:20;9.55;;;3.88;;
56541;SDS011;42438;53.174;6.730;2023-05-28T13:39:51;11.95;;;4.63;;
56541;SDS011;42438;53.174;6.730;2023-05-28T13:42:22;8.45;;;3.40;;
56541;SDS011;42438;53.174;6.730;2023-05-28T13:44:52;7.25;;;3.63;;
56541;SDS011;42438;53.174;6.730;2023-05-28T13:47:23;10.48;;;4.28;;
56541;SDS011;42438;53.174;6.730;2023-05-28T13:49:54;9.73;;;3.92;;
56541;SDS011;42438;53.174;6.730;2023-05-28T13:52:24;11.95;;;4.22;;
56541;SDS011;42438;53.174;6.730;2023-05-28T13:54:55;7.55;;;3.55;;
56541;SDS011;42438;53.174;6.730;2023-05-28T13:57:26;6.78;;;3.33;;
56541;SDS011;42438;53.174;6.730;2023-05-28T13:59:57;7.40;;;2.92;;
56541;SDS011;42438;53.174;6.730;2023-05-28T14:02:30;11.13;;;3.75;;
56541;SDS011;42438;53.174;6.730;2023-05-28T14:05:01;8.75;;;3.40;;
56541;SDS011;42438;53.174;6.730;2023-05-28T14:07:31;7.28;;;3.65;;
56541;SDS011;42438;53.174;6.730;2023-05-28T14:10:02;9.50;;;4.03;;
56541;SDS011;42438;53.174;6.730;2023-05-28T14:12:33;10.00;;;3.60;;
56541;SDS011;42438;53.174;6.730;2023-05-28T14:15:05;9.43;;;4.03;;
56541;SDS011;42438;53.174;6.730;2023-05-28T14:17:36;7.30;;;3.55;;
56541;SDS011;42438;53.174;6.730;2023-05-28T14:20:06;9.35;;;3.10;;
56541;SDS011;42438;53.174;6.730;2023-05-28T14:22:38;7.45;;;3.42;;
56541;SDS011;42438;53.174;6.730;2023-05-28T14:25:12;11.13;;;3.63;;
56541;SDS011;42438;53.174;6.730;2023-05-28T14:27:43;9.38;;;3.22;;
56541;SDS011;42438;53.174;6.730;2023-05-28T14:30:14;9.02;;;3.90;;
56541;SDS011;42438;53.174;6.730;2023-05-28T14:32:45;10.82;;;3.78;;
56541;SDS011;42438;53.174;6.730;2023-05-28T14:35:15;10.65;;;4.30;;
56541;SDS011;42438;53.174;6.730;2023-05-28T14:37:46;10.20;;;3.95;;
56541;SDS011;42438;53.174;6.730;2023-05-28T14:40:19;12.85;;;4.50;;
56541;SDS011;42438;53.174;6.730;2023-05-28T14:42:50;11.73;;;4.40;;
56541;SDS011;42438;53.174;6.730;2023-05-28T14:45:21;10.65;;;3.92;;
56541;SDS011;42438;53.174;6.730;2023-05-28T14:47:52;10.60;;;4.55;;
56541;SDS011;42438;53.174;6.730;2023-05-28T14:50:22;12.18;;;4.70;;
56541;SDS011;42438;53.174;6.730;2023-05-28T14:52:53;13.77;;;5.63;;
56541;SDS011;42438;53.174;6.730;2023-05-28T14:55:24;9.35;;;4.50;;
56541;SDS011;42438;53.174;6.730;2023-05-28T14:57:54;12.35;;;5.28;;
56541;SDS011;42438;53.174;6.730;2023-05-28T15:00:25;13.48;;;4.75;;
56541;SDS011;42438;53.174;6.730;2023-05-28T15:02:55;11.48;;;3.78;;
56541;SDS011;42438;53.174;6.730;2023-05-28T15:05:26;10.48;;;4.10;;
56541;SDS011;42438;53.174;6.730;2023-05-28T15:07:58;10.63;;;4.03;;
56541;SDS011;42438;53.174;6.730;2023-05-28T15:10:28;12.07;;;4.80;;